Adams, Oklahoma
Current Conditions -  °F | °C
As of 11:15 PM on Friday 19 Dec 2014 (Local Time) from KLBL Reporting Station
Clear Clear  
Wind Chill: -6°   Ceiling: Unl
Heat Index: -1°   Visibility: 9mi
Dew Point: -3°   Wind: 9mph
Humidity: 86%   Direction: 210°SSW
Pressure: 30.14"   Gusts: NA
Location:  36.76°N, 101.08°W
Report Text: KLBL 200515Z AUTO 21008KT 9SM CLR M01/M03 A3014 RMK AO1
Loading
Personal Weather Stations






























Interactive Weather Map New forecast layout! Learn more

10-Day Weather Forecast

Advertisements
Track Severe Weather on mobile